Time;durP1;ratioP1;P1;durP2;ratioP2;P2;SDS_P1;SDS_P2;PMS_P1;PMS_P2;Temp;Humidity;BMP_temperature;BMP_pressure;BME280_temperature;BME280_humidity;BME280_pressure;Samples;Min_cycle;Max_cycle;Signal;HPM_P1;HPM_P2
2023/02/27 00:01:05;;;;;;;2.90;1.40;;;1.60;99.90;;;;;;5062598;28;20024;-43
2023/02/27 00:03:31;;;;;;;4.20;1.50;;;1.60;99.90;;;;;;5062335;28;20083;-42
2023/02/27 00:05:59;;;;;;;4.88;1.38;;;1.60;99.90;;;;;;5057040;28;20037;-42
2023/02/27 00:08:25;;;;;;;2.72;1.25;;;1.50;99.90;;;;;;5054883;28;20029;-42
2023/02/27 00:10:51;;;;;;;4.47;1.70;;;1.50;99.90;;;;;;5059585;28;20024;-43
2023/02/27 00:13:16;;;;;;;2.80;1.50;;;1.50;99.90;;;;;;5052096;28;20020;-43
2023/02/27 00:15:55;;;;;;;3.88;1.35;;;1.50;99.90;;;;;;5061893;28;20053;-43
2023/02/27 00:18:21;;;;;;;3.75;1.90;;;1.50;99.90;;;;;;5051075;28;20016;-42
2023/02/27 00:20:50;;;;;;;5.20;1.67;;;1.50;99.90;;;;;;5061942;28;20025;-43
2023/02/27 00:23:16;;;;;;;3.25;1.48;;;1.50;99.90;;;;;;5062679;28;20035;-42
2023/02/27 00:25:41;;;;;;;2.33;1.30;;;1.50;99.90;;;;;;5061575;28;20037;-43
2023/02/27 00:28:07;;;;;;;2.42;1.25;;;1.50;99.90;;;;;;5062490;28;20035;-42
2023/02/27 00:30:33;;;;;;;4.15;1.27;;;1.50;99.90;;;;;;5061690;28;20062;-42
2023/02/27 00:32:59;;;;;;;6.15;2.67;;;1.50;99.90;;;;;;5048738;28;20063;-42
2023/02/27 00:35:24;;;;;;;2.63;1.38;;;1.50;99.90;;;;;;5060953;28;20123;-42
2023/02/27 00:37:50;;;;;;;3.03;1.25;;;1.50;99.90;;;;;;5049036;28;20833;-43
2023/02/27 00:40:16;;;;;;;1.63;1.13;;;1.50;99.90;;;;;;5060884;28;20835;-41
2023/02/27 00:42:42;;;;;;;2.53;1.38;;;1.40;99.90;;;;;;5052368;28;20055;-41
2023/02/27 00:45:08;;;;;;;3.55;1.40;;;1.40;99.90;;;;;;5056924;28;20759;-43
2023/02/27 00:47:34;;;;;;;3.00;1.83;;;1.50;99.90;;;;;;5061706;28;20019;-42
2023/02/27 00:50:00;;;;;;;1.48;1.10;;;1.50;99.90;;;;;;5061294;28;20249;-44
2023/02/27 00:52:26;;;;;;;3.25;1.40;;;1.40;99.90;;;;;;5057084;28;20024;-41
2023/02/27 00:54:51;;;;;;;1.60;1.30;;;1.40;99.90;;;;;;5052490;28;20020;-43
2023/02/27 00:57:17;;;;;;;4.10;1.40;;;1.40;99.90;;;;;;5062289;28;20382;-42
2023/02/27 00:59:43;;;;;;;3.25;1.65;;;1.40;99.90;;;;;;5049545;28;20555;-42
2023/02/27 01:02:11;;;;;;;2.90;1.50;;;1.40;99.90;;;;;;5060231;28;20023;-42
2023/02/27 01:04:37;;;;;;;2.65;1.33;;;1.40;99.90;;;;;;5061672;28;20051;-43
2023/02/27 01:07:03;;;;;;;3.38;1.45;;;1.40;99.90;;;;;;5060028;28;20570;-42
2023/02/27 01:09:28;;;;;;;3.08;1.40;;;1.40;99.90;;;;;;5047877;28;20048;-42
2023/02/27 01:11:57;;;;;;;3.33;1.60;;;1.40;99.90;;;;;;5061010;28;20435;-43
2023/02/27 01:14:22;;;;;;;2.05;1.10;;;1.40;99.90;;;;;;5047561;28;20451;-43
2023/02/27 01:16:48;;;;;;;1.90;1.10;;;1.40;99.90;;;;;;5060778;28;20036;-42
2023/02/27 01:19:14;;;;;;;2.53;1.38;;;1.50;99.90;;;;;;5049710;28;20118;-43
2023/02/27 01:21:40;;;;;;;2.47;1.20;;;1.40;99.90;;;;;;5059903;28;20527;-43
2023/02/27 01:24:07;;;;;;;2.85;1.77;;;1.40;99.90;;;;;;5052268;28;20385;-42
2023/02/27 01:26:32;;;;;;;2.40;1.50;;;1.40;99.90;;;;;;5057663;28;20086;-43
2023/02/27 01:28:58;;;;;;;2.13;1.35;;;1.50;99.90;;;;;;5053699;28;20491;-42
2023/02/27 01:31:23;;;;;;;3.55;1.45;;;1.50;99.90;;;;;;5055395;28;20131;-42
2023/02/27 01:33:49;;;;;;;4.57;1.48;;;1.50;99.90;;;;;;5055702;28;20040;-43
2023/02/27 01:36:15;;;;;;;2.40;1.45;;;1.50;99.90;;;;;;5052577;28;20036;-42
2023/02/27 01:38:40;;;;;;;3.00;1.90;;;1.50;99.90;;;;;;5060849;28;20086;-43
2023/02/27 01:41:06;;;;;;;4.95;2.10;;;1.40;99.90;;;;;;5059596;28;20028;-42
2023/02/27 01:43:32;;;;;;;3.47;1.30;;;1.40;99.90;;;;;;5059574;28;20063;-41
2023/02/27 01:45:59;;;;;;;4.20;1.70;;;1.40;99.90;;;;;;5048167;28;20539;-43
2023/02/27 01:48:34;;;;;;;3.28;1.45;;;1.30;99.90;;;;;;5060075;28;20020;-42
2023/02/27 01:51:10;;;;;;;5.55;2.42;;;1.20;99.90;;;;;;5059994;28;20029;-42
2023/02/27 01:53:37;;;;;;;3.88;1.67;;;1.20;99.90;;;;;;5060571;28;20270;-42
2023/02/27 01:56:10;;;;;;;2.97;1.60;;;1.10;99.90;;;;;;5058490;28;20036;-42
2023/02/27 01:58:36;;;;;;;3.35;1.75;;;1.10;99.90;;;;;;5060920;28;20032;-42
2023/02/27 02:01:05;;;;;;;3.58;1.50;;;1.00;99.90;;;;;;5059650;28;20801;-42
2023/02/27 02:03:49;;;;;;;5.90;2.10;;;1.00;99.90;;;;;;5060477;28;20069;-42
2023/02/27 02:06:15;;;;;;;4.43;1.80;;;0.90;99.90;;;;;;5060121;28;20052;-42
2023/02/27 02:08:47;;;;;;;4.15;1.95;;;0.80;99.90;;;;;;5059684;28;20020;-42
2023/02/27 02:11:15;;;;;;;2.80;1.70;;;0.80;99.90;;;;;;5059665;28;20028;-42
2023/02/27 02:13:41;;;;;;;2.08;1.63;;;0.80;99.90;;;;;;5060193;28;20267;-41
2023/02/27 02:16:25;;;;;;;3.47;1.70;;;0.80;99.90;;;;;;5058109;28;20056;-43
2023/02/27 02:19:12;;;;;;;3.78;1.52;;;0.70;99.90;;;;;;5038997;28;20582;-41
2023/02/27 02:21:57;;;;;;;4.97;1.60;;;0.70;99.90;;;;;;5057575;28;20037;-44
2023/02/27 02:24:37;;;;;;;5.32;1.90;;;0.70;99.90;;;;;;5060182;28;20074;-43
2023/02/27 02:27:22;;;;;;;4.13;1.70;;;0.60;99.90;;;;;;5046831;28;20036;-44
2023/02/27 02:29:59;;;;;;;2.28;1.20;;;0.60;99.90;;;;;;5071132;22;20049;-86
2023/02/27 02:32:54;;;;;;;3.15;1.70;;;0.60;99.90;;;;;;5030463;28;20122;-86
2023/02/27 02:35:45;;;;;;;5.47;2.03;;;0.60;99.90;;;;;;5003891;28;20424;-87
2023/02/27 02:38:39;;;;;;;2.28;1.60;;;0.60;99.90;;;;;;5033278;28;20029;-87
2023/02/27 02:41:29;;;;;;;3.05;1.83;;;0.60;99.90;;;;;;5033263;28;20045;-88
2023/02/27 02:44:24;;;;;;;8.50;2.10;;;0.60;99.90;;;;;;5033526;28;20037;-88
2023/02/27 02:47:27;;;;;;;5.05;1.83;;;0.50;99.90;;;;;;5033861;28;20017;-88
2023/02/27 02:49:59;;;;;;;5.40;1.75;;;0.50;99.90;;;;;;5033621;28;20037;-87
2023/02/27 02:53:03;;;;;;;2.90;2.10;;;0.50;99.90;;;;;;5033933;28;20030;-88
2023/02/27 02:55:39;;;;;;;7.97;2.40;;;0.40;99.90;;;;;;5014702;28;20030;-87
2023/02/27 02:58:14;;;;;;;5.47;1.90;;;0.40;99.90;;;;;;5034175;28;20103;-88
2023/02/27 03:01:01;;;;;;;5.45;2.22;;;0.40;99.90;;;;;;5033229;28;20033;-88
2023/02/27 03:03:35;;;;;;;4.10;2.10;;;0.40;99.90;;;;;;5033879;28;20095;-89
2023/02/27 03:06:40;;;;;;;3.47;2.13;;;0.40;99.90;;;;;;5033698;28;20033;-88
2023/02/27 03:09:48;;;;;;;7.97;2.60;;;0.30;99.90;;;;;;5027437;28;20038;-88
2023/02/27 03:12:19;;;;;;;6.22;2.63;;;0.30;99.90;;;;;;5014200;28;20370;-87
2023/02/27 03:15:14;;;;;;;5.63;2.20;;;0.30;99.90;;;;;;5026879;28;20080;-89
2023/02/27 03:17:49;;;;;;;7.75;2.35;;;0.20;99.90;;;;;;5034045;28;20018;-89
2023/02/27 03:20:28;;;;;;;4.85;2.38;;;0.20;99.90;;;;;;5033691;28;20401;-87
2023/02/27 03:22:58;;;;;;;5.80;2.10;;;0.20;99.90;;;;;;5033373;28;20445;-88
2023/02/27 03:25:26;;;;;;;5.03;2.17;;;0.20;99.90;;;;;;5033856;28;20030;-87
2023/02/27 03:27:59;;;;;;;2.55;1.85;;;0.10;99.90;;;;;;5033091;28;20306;-88
2023/02/27 03:30:31;;;;;;;3.35;1.92;;;0.00;99.90;;;;;;5033794;28;20302;-88
2023/02/27 03:33:01;;;;;;;4.85;2.00;;;0.00;99.90;;;;;;5033227;28;20030;-88
2023/02/27 03:35:42;;;;;;;7.43;2.47;;;0.00;99.90;;;;;;5037502;28;20091;-88
2023/02/27 03:38:32;;;;;;;3.97;1.90;;;-0.10;99.90;;;;;;5036988;28;20067;-88
2023/02/27 03:41:22;;;;;;;6.00;2.43;;;-0.10;99.90;;;;;;5036722;28;20029;-88
2023/02/27 03:43:52;;;;;;;7.38;2.38;;;-0.10;99.90;;;;;;5037594;28;20043;-87
2023/02/27 03:46:23;;;;;;;5.35;2.65;;;-0.20;99.90;;;;;;5037700;28;20103;-87
2023/02/27 03:48:49;;;;;;;3.53;2.25;;;-0.20;99.90;;;;;;5037231;28;20628;-88
2023/02/27 03:51:19;;;;;;;5.38;2.95;;;-0.20;99.90;;;;;;5036434;28;20025;-88
2023/02/27 03:54:18;;;;;;;6.15;2.50;;;-0.20;99.90;;;;;;5036614;28;20457;-90
2023/02/27 03:56:50;;;;;;;7.43;2.00;;;-0.20;99.90;;;;;;5037023;28;20030;-88
2023/02/27 03:59:16;;;;;;;5.00;2.47;;;-0.30;99.90;;;;;;5036555;28;20356;-88
2023/02/27 04:01:43;;;;;;;6.93;2.43;;;-0.30;99.90;;;;;;5035706;28;20022;-88
2023/02/27 04:04:15;;;;;;;5.50;2.30;;;-0.30;99.90;;;;;;5036429;28;20133;-88
2023/02/27 04:10:14;;;;;;;5.15;1.98;;;-0.30;99.90;;;;;;5036742;28;20124;-88
2023/02/27 04:13:02;;;;;;;6.45;2.30;;;-0.30;99.90;;;;;;5036639;28;20409;-88
2023/02/27 04:15:59;;;;;;;6.55;2.63;;;-0.40;99.90;;;;;;5036996;28;20137;-88
2023/02/27 04:19:00;;;;;;;4.03;1.90;;;-0.40;99.90;;;;;;5035878;28;20456;-86
2023/02/27 04:21:35;;;;;;;4.63;2.40;;;-0.40;99.90;;;;;;5035740;28;20128;-87
2023/02/27 04:24:20;;;;;;;8.82;2.72;;;-0.40;99.90;;;;;;5037824;28;20033;-87
2023/02/27 04:27:12;;;;;;;6.68;1.98;;;-0.40;99.90;;;;;;5036658;28;20602;-87
2023/02/27 04:29:43;;;;;;;4.22;2.45;;;-0.40;99.90;;;;;;5037556;28;20071;-87
2023/02/27 04:32:30;;;;;;;6.10;2.13;;;-0.40;99.90;;;;;;5038557;28;20029;-87
2023/02/27 04:35:06;;;;;;;3.97;2.10;;;-0.40;99.90;;;;;;5038539;28;20389;-88
2023/02/27 04:37:43;;;;;;;5.63;2.05;;;-0.40;99.90;;;;;;5051074;28;20047;-88
2023/02/27 04:40:14;;;;;;;4.80;2.13;;;-0.40;99.90;;;;;;5043207;28;20028;-87
2023/02/27 04:42:46;;;;;;;6.88;3.05;;;-0.40;99.90;;;;;;5041587;28;20052;-88
2023/02/27 04:45:15;;;;;;;7.60;2.65;;;-0.40;99.90;;;;;;5040242;28;20438;-88
2023/02/27 04:48:04;;;;;;;7.15;2.53;;;-0.40;99.90;;;;;;5032664;28;20025;-87
2023/02/27 04:50:44;;;;;;;7.47;2.40;;;-0.50;99.90;;;;;;5037894;28;20029;-87
2023/02/27 04:53:51;;;;;;;3.75;2.03;;;-0.40;99.90;;;;;;5037133;28;20493;-87
2023/02/27 04:56:27;;;;;;;3.37;2.10;;;-0.50;99.90;;;;;;5033307;28;20037;-87
2023/02/27 04:59:01;;;;;;;3.72;1.92;;;-0.50;99.90;;;;;;5036810;28;20034;-87
2023/02/27 05:01:43;;;;;;;3.30;1.97;;;-0.50;99.90;;;;;;5037128;28;20041;-87
2023/02/27 05:04:13;;;;;;;6.57;2.42;;;-0.50;99.90;;;;;;5038137;28;20029;-88
2023/02/27 05:06:42;;;;;;;3.37;2.10;;;-0.50;99.90;;;;;;5037567;28;20021;-87
2023/02/27 05:09:18;;;;;;;3.50;2.37;;;-0.40;99.90;;;;;;5037338;28;20052;-87
2023/02/27 05:12:07;;;;;;;3.63;2.20;;;-0.40;99.90;;;;;;5037700;28;20021;-87
2023/02/27 05:14:37;;;;;;;4.28;1.95;;;-0.40;99.90;;;;;;5027868;28;20029;-88
2023/02/27 05:17:24;;;;;;;4.93;2.10;;;-0.40;99.90;;;;;;5037339;28;20453;-89
2023/02/27 05:19:50;;;;;;;7.55;2.50;;;-0.40;99.90;;;;;;5037608;28;20029;-88
2023/02/27 05:22:44;;;;;;;3.78;1.92;;;-0.40;99.90;;;;;;5038892;28;20048;-87
2023/02/27 05:25:40;;;;;;;2.67;1.80;;;-0.40;99.90;;;;;;5038522;28;20469;-88
2023/02/27 05:28:12;;;;;;;2.90;1.93;;;-0.40;99.90;;;;;;5054367;28;20035;-89
2023/02/27 05:30:48;;;;;;;5.03;2.13;;;-0.50;99.90;;;;;;5054511;28;20049;-88
2023/02/27 05:33:33;;;;;;;2.53;1.75;;;-0.50;99.90;;;;;;5048329;28;20033;-89
2023/02/27 05:36:10;;;;;;;4.18;1.70;;;-0.50;99.90;;;;;;5052510;28;20052;-89
2023/02/27 05:38:57;;;;;;;2.93;1.80;;;-0.50;99.90;;;;;;5035595;28;20030;-89
2023/02/27 05:41:32;;;;;;;4.57;1.90;;;-0.50;99.90;;;;;;5035656;28;20075;-89
2023/02/27 05:44:05;;;;;;;6.37;2.00;;;-0.50;99.90;;;;;;5035422;28;20017;-88
2023/02/27 05:46:37;;;;;;;3.25;1.80;;;-0.50;99.90;;;;;;5035421;28;20033;-89
2023/02/27 05:49:17;;;;;;;3.63;1.73;;;-0.50;99.90;;;;;;5031948;28;20020;-89
2023/02/27 05:51:48;;;;;;;3.07;1.77;;;-0.40;99.90;;;;;;5035950;28;20025;-89
2023/02/27 05:54:25;;;;;;;4.07;1.70;;;-0.40;99.90;;;;;;5035245;28;20021;-88
2023/02/27 05:56:55;;;;;;;3.47;1.73;;;-0.40;99.90;;;;;;5033742;28;20033;-89
2023/02/27 05:59:38;;;;;;;3.67;1.70;;;-0.30;99.90;;;;;;5034802;28;20021;-88
2023/02/27 06:02:04;;;;;;;4.75;1.95;;;-0.30;99.90;;;;;;5034924;28;20129;-88
2023/02/27 06:04:30;;;;;;;5.27;2.47;;;-0.30;99.90;;;;;;5034492;28;20025;-88
2023/02/27 06:06:56;;;;;;;3.28;2.03;;;-0.20;99.90;;;;;;5034414;28;20531;-88
2023/02/27 06:09:22;;;;;;;5.03;2.00;;;-0.20;99.90;;;;;;5034890;28;20021;-88
2023/02/27 06:11:48;;;;;;;4.90;1.70;;;-0.20;99.90;;;;;;5034727;28;20272;-89
2023/02/27 06:14:16;;;;;;;4.33;1.90;;;-0.20;99.90;;;;;;5035257;28;20405;-88
2023/02/27 06:16:42;;;;;;;2.80;1.43;;;-0.20;99.90;;;;;;5036409;28;20029;-90
2023/02/27 06:19:10;;;;;;;3.47;1.73;;;-0.20;99.90;;;;;;5036495;28;20401;-90
2023/02/27 06:21:36;;;;;;;7.43;2.97;;;-0.20;99.90;;;;;;5036816;28;20652;-89
2023/02/27 06:24:05;;;;;;;6.53;2.80;;;-0.10;99.90;;;;;;5035747;28;20033;-88
2023/02/27 06:26:31;;;;;;;3.80;1.90;;;-0.10;99.90;;;;;;5036043;28;20033;-89
2023/02/27 06:28:56;;;;;;;3.65;2.05;;;-0.10;99.90;;;;;;5035478;28;20052;-87
2023/02/27 06:31:22;;;;;;;4.20;1.93;;;-0.10;99.90;;;;;;5034573;28;20053;-89
2023/02/27 06:33:48;;;;;;;5.50;2.40;;;-0.10;99.90;;;;;;5031436;28;20044;-89
2023/02/27 06:36:13;;;;;;;4.30;2.60;;;-0.10;99.90;;;;;;5035463;28;20048;-88
2023/02/27 06:38:39;;;;;;;5.78;2.28;;;0.00;99.90;;;;;;5037224;28;20122;-89
2023/02/27 06:41:05;;;;;;;7.47;2.43;;;0.00;99.90;;;;;;5037668;28;20025;-89
2023/02/27 06:43:33;;;;;;;4.55;2.53;;;0.00;99.90;;;;;;5039648;28;20034;-89
2023/02/27 06:46:00;;;;;;;3.45;2.75;;;0.00;99.90;;;;;;5037219;28;20120;-90
2023/02/27 06:48:25;;;;;;;7.60;2.88;;;0.10;99.90;;;;;;5037496;28;20025;-89
2023/02/27 06:50:52;;;;;;;5.32;2.28;;;0.10;99.90;;;;;;5032493;28;20167;-89
2023/02/27 06:53:18;;;;;;;5.85;2.47;;;0.10;99.90;;;;;;5034813;28;20030;-89
2023/02/27 06:55:48;;;;;;;5.78;2.60;;;0.10;99.90;;;;;;5033083;28;20068;-88
2023/02/27 06:58:16;;;;;;;4.95;2.47;;;0.20;99.90;;;;;;5034196;28;20044;-87
2023/02/27 07:00:48;;;;;;;3.65;2.17;;;0.20;99.90;;;;;;5034929;28;20029;-89
2023/02/27 07:03:14;;;;;;;4.13;2.07;;;0.20;99.90;;;;;;5035581;28;20052;-87
2023/02/27 07:05:40;;;;;;;3.92;2.45;;;0.20;99.90;;;;;;5033790;28;20569;-89
2023/02/27 07:08:06;;;;;;;3.15;2.20;;;0.20;99.90;;;;;;5036083;28;20132;-88
2023/02/27 07:10:32;;;;;;;5.05;2.63;;;0.30;99.90;;;;;;5036830;28;20104;-88
2023/02/27 07:12:58;;;;;;;6.75;2.92;;;0.20;99.90;;;;;;5017046;28;20046;-88
2023/02/27 07:15:24;;;;;;;5.60;2.47;;;0.30;99.90;;;;;;5023762;28;20087;-88
2023/02/27 07:17:49;;;;;;;5.40;2.50;;;0.30;99.90;;;;;;5035450;28;20620;-87
2023/02/27 07:20:15;;;;;;;4.97;2.67;;;0.40;99.90;;;;;;5036631;28;20033;-88
2023/02/27 07:22:41;;;;;;;4.82;2.40;;;0.40;99.90;;;;;;5037424;28;20033;-88
2023/02/27 07:25:10;;;;;;;5.35;2.40;;;0.40;99.90;;;;;;5036627;28;20055;-88
2023/02/27 07:27:36;;;;;;;4.32;1.92;;;0.40;99.90;;;;;;5036903;28;20045;-88
2023/02/27 07:30:02;;;;;;;5.00;2.25;;;0.40;99.90;;;;;;5036506;28;20041;-89
2023/02/27 07:32:28;;;;;;;6.28;2.22;;;0.40;99.90;;;;;;5037252;28;20087;-89
2023/02/27 07:34:59;;;;;;;4.15;2.53;;;0.40;99.90;;;;;;5037598;28;20025;-88
2023/02/27 07:37:25;;;;;;;6.55;2.60;;;0.40;99.90;;;;;;5038065;28;20033;-87
2023/02/27 07:39:51;;;;;;;5.65;2.80;;;0.50;99.90;;;;;;5038292;28;20033;-89
2023/02/27 07:42:19;;;;;;;4.80;2.63;;;0.50;99.90;;;;;;5038795;28;20025;-87
2023/02/27 07:44:45;;;;;;;4.95;2.70;;;0.50;99.90;;;;;;5036283;28;20029;-88
2023/02/27 07:47:11;;;;;;;7.68;2.80;;;0.60;99.90;;;;;;5036556;28;20040;-88
2023/02/27 07:49:37;;;;;;;7.03;3.25;;;0.60;99.90;;;;;;5036572;28;20643;-89
2023/02/27 07:52:06;;;;;;;5.90;3.42;;;0.60;99.90;;;;;;5037120;28;20037;-89
2023/02/27 07:54:32;;;;;;;5.32;3.10;;;0.70;99.90;;;;;;5037395;28;20025;-88
2023/02/27 07:56:58;;;;;;;4.32;3.00;;;0.70;99.90;;;;;;5036045;28;20412;-88
2023/02/27 07:59:24;;;;;;;4.50;2.67;;;0.70;99.90;;;;;;5035944;28;20099;-89
2023/02/27 08:01:49;;;;;;;5.32;3.25;;;0.80;99.90;;;;;;5034865;28;20337;-86
2023/02/27 08:04:15;;;;;;;3.90;3.05;;;0.80;99.90;;;;;;5035838;28;20090;-87
2023/02/27 08:06:41;;;;;;;6.20;2.97;;;0.90;99.90;;;;;;5036373;28;20021;-88
2023/02/27 08:09:07;;;;;;;4.35;2.50;;;1.00;99.90;;;;;;5036738;28;20037;-88
2023/02/27 08:11:36;;;;;;;5.00;3.13;;;1.00;99.90;;;;;;5036692;28;20091;-89
2023/02/27 08:14:02;;;;;;;4.70;2.70;;;1.10;99.90;;;;;;5036595;28;20021;-88
2023/02/27 08:16:30;;;;;;;5.90;2.10;;;1.20;99.90;;;;;;5037446;28;20452;-88
2023/02/27 08:18:59;;;;;;;3.22;2.50;;;1.20;99.90;;;;;;5035742;28;20343;-89
2023/02/27 08:21:25;;;;;;;4.28;2.10;;;1.30;99.90;;;;;;5036964;28;20033;-89
2023/02/27 08:23:51;;;;;;;5.25;2.65;;;1.30;99.90;;;;;;5036408;28;20017;-89
2023/02/27 08:26:17;;;;;;;5.95;2.47;;;1.40;99.90;;;;;;5036622;28;20025;-90
2023/02/27 08:28:50;;;;;;;5.05;2.50;;;1.50;99.90;;;;;;5036606;28;20389;-90
2023/02/27 08:31:18;;;;;;;4.22;2.42;;;1.50;99.90;;;;;;5016292;28;20132;-90
2023/02/27 08:33:44;;;;;;;5.60;2.10;;;1.60;99.90;;;;;;5032271;28;20032;-91
2023/02/27 08:36:10;;;;;;;4.03;2.13;;;1.70;99.90;;;;;;5036848;28;20108;-89
2023/02/27 08:38:36;;;;;;;4.55;2.63;;;1.70;99.90;;;;;;5035774;28;20025;-88
2023/02/27 08:41:30;;;;;;;6.40;2.25;;;1.80;99.90;;;;;;5036260;28;20390;-90
2023/02/27 08:44:02;;;;;;;4.18;2.20;;;1.80;99.90;;;;;;5035260;28;20048;-89
2023/02/27 08:46:32;;;;;;;3.35;2.33;;;1.90;99.90;;;;;;5037204;28;20090;-90
2023/02/27 08:49:00;;;;;;;5.25;3.55;;;2.00;99.90;;;;;;5037349;28;20076;-89
2023/02/27 08:51:34;;;;;;;3.22;2.00;;;2.00;99.90;;;;;;5036192;28;20117;-89
2023/02/27 08:54:05;;;;;;;3.17;1.75;;;2.10;99.90;;;;;;5036704;28;20350;-89
2023/02/27 08:57:01;;;;;;;2.88;1.75;;;2.10;99.90;;;;;;5037412;28;20443;-90
2023/02/27 08:59:37;;;;;;;2.95;1.77;;;2.20;99.90;;;;;;5036752;28;20437;-90
2023/02/27 09:02:26;;;;;;;4.28;1.88;;;2.20;99.90;;;;;;5037650;28;20120;-91
2023/02/27 09:05:17;;;;;;;2.38;1.67;;;2.30;99.90;;;;;;5037769;28;20025;-92
2023/02/27 09:53:42;;;;;;;3.35;1.77;;;3.50;99.90;;;;;;4822170;29;20065;-91
2023/02/27 09:56:13;;;;;;;3.38;1.83;;;3.50;99.90;;;;;;4974656;28;20133;-43
2023/02/27 09:58:56;;;;;;;7.25;2.15;;;3.60;99.90;;;;;;4978738;28;20030;-43
2023/02/27 10:01:34;;;;;;;3.33;1.50;;;3.70;99.90;;;;;;4980413;28;20144;-42
2023/02/27 10:04:25;;;;;;;3.85;1.58;;;3.80;99.90;;;;;;4981048;28;20038;-42
2023/02/27 10:07:26;;;;;;;5.38;1.63;;;3.90;99.90;;;;;;4975057;28;20154;-43
2023/02/27 10:10:07;;;;;;;4.80;1.77;;;4.00;99.90;;;;;;4946230;28;20039;-42
2023/02/27 10:13:06;;;;;;;4.00;1.75;;;4.00;99.90;;;;;;4977925;28;20029;-42
2023/02/27 10:15:47;;;;;;;4.95;1.58;;;4.10;99.90;;;;;;4979643;28;20065;-43
2023/02/27 10:18:27;;;;;;;3.50;1.48;;;4.20;99.90;;;;;;4968661;28;20508;-42
2023/02/27 10:20:53;;;;;;;3.70;1.42;;;4.30;99.90;;;;;;4978415;28;20046;-43
2023/02/27 10:23:31;;;;;;;4.60;1.40;;;4.30;99.90;;;;;;4974853;28;20039;-42
2023/02/27 10:25:58;;;;;;;4.30;1.58;;;4.30;99.90;;;;;;4979215;28;20026;-43
2023/02/27 10:28:25;;;;;;;1.85;1.30;;;4.40;99.90;;;;;;4973741;28;20366;-43
2023/02/27 10:30:53;;;;;;;2.85;1.42;;;4.50;99.90;;;;;;4980875;28;20030;-43
2023/02/27 10:33:40;;;;;;;3.30;1.63;;;4.50;99.90;;;;;;4978652;28;20086;-43
2023/02/27 10:36:10;;;;;;;2.88;1.38;;;4.50;99.90;;;;;;4979834;28;20038;-43
2023/02/27 10:38:43;;;;;;;3.55;1.42;;;4.60;99.90;;;;;;4980141;28;20061;-43
2023/02/27 10:41:11;;;;;;;1.60;1.13;;;4.70;99.90;;;;;;4980186;28;20030;-43
2023/02/27 10:43:37;;;;;;;2.08;1.30;;;4.70;99.90;;;;;;4979505;28;20038;-43
2023/02/27 10:46:12;;;;;;;4.68;1.55;;;4.80;99.90;;;;;;4980209;28;20103;-43
2023/02/27 10:48:38;;;;;;;1.85;1.20;;;4.80;99.90;;;;;;4978802;28;20421;-43
2023/02/27 10:51:30;;;;;;;2.97;1.40;;;4.90;99.90;;;;;;4980304;28;20035;-42
2023/02/27 10:54:19;;;;;;;5.60;1.58;;;4.90;99.90;;;;;;4981029;28;20019;-43
2023/02/27 10:56:49;;;;;;;5.40;2.08;;;4.90;99.90;;;;;;4997825;28;20041;-43
2023/02/27 10:59:34;;;;;;;2.08;1.38;;;4.90;99.90;;;;;;4999825;28;20056;-43
2023/02/27 11:02:38;;;;;;;3.70;1.80;;;5.00;99.40;;;;;;4999674;28;20062;-43
2023/02/27 11:05:16;;;;;;;5.28;1.55;;;5.00;99.30;;;;;;4998811;28;20025;-43
2023/02/27 11:07:42;;;;;;;3.13;1.60;;;5.10;99.00;;;;;;4998661;28;20032;-43
2023/02/27 11:10:11;;;;;;;3.40;1.20;;;5.20;98.60;;;;;;4997304;28;20026;-43
2023/02/27 11:12:37;;;;;;;2.42;1.15;;;5.30;98.80;;;;;;4999052;28;20871;-44
2023/02/27 11:15:28;;;;;;;3.42;1.00;;;5.40;98.20;;;;;;5000413;28;20244;-42
2023/02/27 11:17:54;;;;;;;1.27;0.95;;;5.50;97.40;;;;;;4998905;28;20476;-43
2023/02/27 11:20:29;;;;;;;2.28;1.15;;;5.60;96.80;;;;;;5000494;28;20022;-43
2023/02/27 11:23:14;;;;;;;1.58;1.15;;;5.70;96.90;;;;;;4999374;28;20060;-43
2023/02/27 11:25:40;;;;;;;3.05;1.00;;;5.80;96.50;;;;;;4988836;28;20053;-42
2023/02/27 11:28:17;;;;;;;2.97;0.70;;;5.90;95.70;;;;;;5000213;28;20026;-42
2023/02/27 11:30:43;;;;;;;4.82;1.20;;;5.90;95.70;;;;;;5000290;28;20163;-43
2023/02/27 11:33:18;;;;;;;1.88;0.80;;;5.90;95.30;;;;;;5000199;28;20597;-43
2023/02/27 11:35:50;;;;;;;1.23;0.93;;;5.70;94.80;;;;;;5000613;28;20140;-44
2023/02/27 11:38:22;;;;;;;2.65;0.70;;;5.70;94.90;;;;;;5000097;28;20100;-43
2023/02/27 11:40:55;;;;;;;3.05;0.73;;;5.60;94.90;;;;;;4997478;28;20506;-44
2023/02/27 11:43:33;;;;;;;1.92;0.70;;;5.50;94.50;;;;;;5000412;28;20112;-44
2023/02/27 11:46:14;;;;;;;0.88;0.75;;;5.50;94.40;;;;;;4997253;28;20038;-43
2023/02/27 11:49:17;;;;;;;1.30;0.82;;;5.50;94.20;;;;;;5000172;28;20037;-43
2023/02/27 11:51:59;;;;;;;2.83;1.08;;;5.60;94.00;;;;;;4990449;28;20100;-42
2023/02/27 11:54:44;;;;;;;2.30;0.90;;;5.60;93.90;;;;;;4999617;28;20062;-42
2023/02/27 11:57:15;;;;;;;3.60;1.10;;;5.60;94.10;;;;;;5003068;28;20326;-42
2023/02/27 11:59:46;;;;;;;2.08;1.15;;;5.70;93.90;;;;;;5001721;28;20034;-42
2023/02/27 12:02:25;;;;;;;2.28;1.00;;;5.70;94.10;;;;;;5003234;28;20049;-43
2023/02/27 12:04:58;;;;;;;1.63;1.15;;;5.70;94.20;;;;;;5002490;28;20086;-44
2023/02/27 12:07:31;;;;;;;2.72;0.80;;;5.80;94.40;;;;;;5003040;28;20045;-43
2023/02/27 12:10:07;;;;;;;4.53;0.90;;;5.90;94.20;;;;;;5001810;28;20030;-43
2023/02/27 12:12:36;;;;;;;2.25;0.90;;;6.00;93.70;;;;;;5003480;28;20584;-43
2023/02/27 12:15:16;;;;;;;1.80;1.02;;;6.10;93.10;;;;;;5002462;28;20034;-42
2023/02/27 12:17:53;;;;;;;2.13;1.13;;;6.20;92.80;;;;;;5002620;28;20050;-43
2023/02/27 12:20:28;;;;;;;1.20;0.80;;;6.20;92.70;;;;;;5002565;28;20022;-43
2023/02/27 12:22:54;;;;;;;3.15;1.20;;;6.20;92.90;;;;;;5003521;28;20052;-42
2023/02/27 12:25:51;;;;;;;5.03;1.73;;;6.30;92.70;;;;;;5003908;28;20149;-43
2023/02/27 12:28:51;;;;;;;4.00;1.40;;;6.40;92.80;;;;;;4983289;28;20389;-43
2023/02/27 12:31:34;;;;;;;2.55;1.52;;;6.50;92.80;;;;;;5003519;28;20034;-43
2023/02/27 12:34:12;;;;;;;2.40;1.40;;;6.50;92.70;;;;;;5002456;28;20032;-43
2023/02/27 12:36:37;;;;;;;3.10;1.30;;;6.50;92.90;;;;;;5001671;28;20033;-43
2023/02/27 12:39:06;;;;;;;3.80;1.00;;;6.60;92.90;;;;;;5002169;28;20026;-43
2023/02/27 12:42:00;;;;;;;1.90;0.80;;;6.70;92.80;;;;;;5001898;28;20044;-43
2023/02/27 12:44:59;;;;;;;3.83;1.83;;;6.80;93.00;;;;;;5002187;28;20026;-43
2023/02/27 12:47:44;;;;;;;4.75;1.65;;;6.90;92.90;;;;;;5001903;28;20058;-44
2023/02/27 12:50:15;;;;;;;2.35;1.55;;;7.00;92.70;;;;;;5002156;28;20865;-44
2023/02/27 12:53:14;;;;;;;3.70;1.15;;;7.10;92.60;;;;;;5002118;28;20496;-43
2023/02/27 12:55:45;;;;;;;4.22;1.40;;;7.30;92.70;;;;;;5000997;28;20057;-43
2023/02/27 12:58:34;;;;;;;2.25;1.30;;;7.50;92.60;;;;;;5001819;28;20036;-44
2023/02/27 13:01:26;;;;;;;2.47;1.20;;;7.60;92.50;;;;;;5001701;28;20040;-44
2023/02/27 13:04:30;;;;;;;1.98;1.13;;;7.60;92.40;;;;;;5000907;28;20065;-43
2023/02/27 13:07:08;;;;;;;4.28;1.40;;;7.60;92.10;;;;;;5001839;28;20040;-43
2023/02/27 13:09:54;;;;;;;2.35;1.00;;;7.50;91.90;;;;;;5001558;28;20026;-43
2023/02/27 13:12:49;;;;;;;2.65;1.10;;;7.40;91.90;;;;;;5002736;28;20477;-42
2023/02/27 13:15:23;;;;;;;4.15;1.10;;;7.30;91.90;;;;;;5002521;28;20038;-43
2023/02/27 13:17:52;;;;;;;2.88;1.30;;;7.20;92.00;;;;;;5000640;28;20066;-43
2023/02/27 13:20:21;;;;;;;2.58;0.90;;;7.20;92.00;;;;;;5001912;28;20484;-44
2023/02/27 13:23:11;;;;;;;2.53;1.17;;;7.10;92.10;;;;;;5000676;28;20296;-43
2023/02/27 13:25:39;;;;;;;1.10;0.90;;;7.00;92.20;;;;;;5001356;28;20202;-43
2023/02/27 13:28:10;;;;;;;1.55;1.10;;;7.00;92.20;;;;;;5001637;28;20030;-43
2023/02/27 13:30:42;;;;;;;4.32;1.30;;;7.10;92.40;;;;;;5001188;28;20701;-43
2023/02/27 13:33:32;;;;;;;2.75;1.33;;;7.20;92.40;;;;;;5001437;28;20032;-43
2023/02/27 13:36:10;;;;;;;3.80;1.35;;;7.20;92.10;;;;;;5000956;28;20057;-43
2023/02/27 13:38:42;;;;;;;4.97;1.23;;;7.20;91.70;;;;;;5001147;28;20544;-44
2023/02/27 13:41:20;;;;;;;2.85;1.45;;;7.20;91.80;;;;;;5002005;28;20041;-43
2023/02/27 13:43:55;;;;;;;2.33;1.60;;;7.10;91.90;;;;;;5000037;28;20129;-43
2023/02/27 13:46:23;;;;;;;2.10;1.52;;;7.10;92.10;;;;;;5000096;28;20645;-43
2023/02/27 13:48:53;;;;;;;5.25;1.50;;;7.00;92.00;;;;;;4999460;28;20123;-43
2023/02/27 13:51:34;;;;;;;2.65;1.55;;;7.00;92.00;;;;;;5000856;28;20030;-43
2023/02/27 13:54:15;;;;;;;2.40;1.55;;;6.90;92.10;;;;;;4999417;28;20034;-42
2023/02/27 13:56:45;;;;;;;2.40;1.48;;;6.80;92.30;;;;;;4999965;28;20061;-42
2023/02/27 13:59:25;;;;;;;4.80;1.70;;;6.70;92.40;;;;;;4999951;28;20302;-42
2023/02/27 14:01:54;;;;;;;2.42;1.55;;;6.70;92.60;;;;;;5000148;28;20112;-43
2023/02/27 14:04:23;;;;;;;2.30;1.25;;;6.70;92.60;;;;;;5000234;28;20033;-43
2023/02/27 14:06:49;;;;;;;4.85;1.52;;;6.70;92.60;;;;;;4999031;28;20037;-43
2023/02/27 14:09:19;;;;;;;2.72;1.58;;;6.80;92.40;;;;;;4999896;28;20022;-43
2023/02/27 14:12:01;;;;;;;3.30;1.40;;;6.80;92.10;;;;;;4995131;28;20030;-43
2023/02/27 14:14:40;;;;;;;3.92;1.77;;;6.70;92.30;;;;;;4999322;28;20100;-43
2023/02/27 14:17:40;;;;;;;4.13;1.27;;;6.60;92.50;;;;;;4999938;28;20072;-43
2023/02/27 14:20:14;;;;;;;3.05;1.30;;;6.60;92.80;;;;;;4999974;28;20036;-43
2023/02/27 14:23:14;;;;;;;2.25;1.27;;;6.60;93.00;;;;;;5001186;28;20365;-43